Time;durP1;ratioP1;P1;durP2;ratioP2;P2;SDS_P1;SDS_P2;PMS_P1;PMS_P2;Temp;Humidity;BMP_temperature;BMP_pressure;BME280_temperature;BME280_humidity;BME280_pressure;Samples;Min_cycle;Max_cycle;Signal;HPM_P1;HPM_P2
2023/03/14 00:00:22;;;;;;;0.60;0.60;;;14.40;75.10;;;;;;5050419;28;20247;-44
2023/03/14 00:02:53;;;;;;;1.10;0.77;;;14.50;74.60;;;;;;5046163;28;20189;-46
2023/03/14 00:05:18;;;;;;;0.70;0.70;;;14.50;74.80;;;;;;5046473;28;20191;-46
2023/03/14 00:07:44;;;;;;;1.00;0.70;;;14.60;74.90;;;;;;5040746;28;20443;-46
2023/03/14 00:10:13;;;;;;;1.80;0.70;;;14.50;74.80;;;;;;5039002;28;20205;-46
2023/03/14 00:12:39;;;;;;;1.63;0.80;;;14.30;75.70;;;;;;5039642;28;20198;-45
2023/03/14 00:15:06;;;;;;;1.53;0.77;;;14.40;75.50;;;;;;5042350;28;20481;-45
2023/03/14 00:17:33;;;;;;;0.70;0.70;;;14.40;76.20;;;;;;5047592;28;20565;-46
2023/03/14 00:20:07;;;;;;;1.00;0.73;;;14.50;75.90;;;;;;5033934;28;20448;-45
2023/03/14 00:22:35;;;;;;;0.97;0.87;;;14.60;75.50;;;;;;5035329;28;20865;-46
2023/03/14 00:25:01;;;;;;;0.60;0.60;;;14.60;74.50;;;;;;5036052;28;20925;-47
2023/03/14 00:27:26;;;;;;;1.17;0.70;;;14.40;75.30;;;;;;5037150;28;20456;-44
2023/03/14 00:29:52;;;;;;;0.70;0.70;;;14.60;75.30;;;;;;5033448;28;20448;-46
2023/03/14 00:32:17;;;;;;;1.50;1.00;;;14.60;74.80;;;;;;5048394;28;20698;-46
2023/03/14 00:34:43;;;;;;;3.23;0.70;;;14.60;74.30;;;;;;5046756;28;20196;-49
2023/03/14 00:37:09;;;;;;;0.70;0.70;;;14.60;73.70;;;;;;5047811;28;20229;-45
2023/03/14 00:39:34;;;;;;;1.33;0.80;;;14.60;73.50;;;;;;5052103;28;20628;-46
2023/03/14 00:42:00;;;;;;;1.00;0.70;;;14.60;73.70;;;;;;5044931;28;20200;-46
2023/03/14 00:44:25;;;;;;;1.63;0.80;;;14.50;73.90;;;;;;5041304;28;20268;-46
2023/03/14 00:46:51;;;;;;;2.10;1.00;;;14.70;73.20;;;;;;5038050;28;20197;-45
2023/03/14 00:49:16;;;;;;;0.83;0.70;;;14.70;72.10;;;;;;5034809;28;20200;-44
2023/03/14 00:51:42;;;;;;;1.20;0.73;;;14.80;72.20;;;;;;5036156;28;20196;-45
2023/03/14 00:54:08;;;;;;;0.70;0.70;;;14.90;71.80;;;;;;5041209;28;20232;-45
2023/03/14 00:56:33;;;;;;;0.73;0.73;;;15.00;71.40;;;;;;5040006;28;20632;-47
2023/03/14 00:58:59;;;;;;;1.30;0.70;;;15.00;70.70;;;;;;5051249;28;20196;-46
2023/03/14 01:01:24;;;;;;;2.00;0.60;;;15.10;70.50;;;;;;5043610;28;20274;-44
2023/03/14 01:03:55;;;;;;;0.80;0.70;;;15.10;69.90;;;;;;5042579;28;20185;-48
2023/03/14 01:06:23;;;;;;;0.60;0.60;;;15.20;69.60;;;;;;5036689;28;20231;-46
2023/03/14 01:08:49;;;;;;;0.60;0.60;;;15.30;68.90;;;;;;5041560;28;20431;-46
2023/03/14 01:11:25;;;;;;;0.80;0.70;;;15.40;68.60;;;;;;5044832;28;20471;-46
2023/03/14 01:13:52;;;;;;;0.60;0.60;;;15.40;68.00;;;;;;5055973;28;20500;-46
2023/03/14 01:16:19;;;;;;;0.80;0.80;;;15.40;68.50;;;;;;5031590;28;20522;-47
2023/03/14 01:18:46;;;;;;;0.93;0.83;;;15.50;68.20;;;;;;5043095;28;20444;-45
2023/03/14 01:21:29;;;;;;;0.97;0.70;;;15.20;67.70;;;;;;5042024;28;20879;-48
2023/03/14 01:23:56;;;;;;;1.57;0.67;;;15.10;69.00;;;;;;5033696;28;20500;-48
2023/03/14 01:26:24;;;;;;;0.80;0.80;;;15.10;69.00;;;;;;5036685;28;20447;-46
2023/03/14 01:28:52;;;;;;;1.20;0.70;;;15.10;68.70;;;;;;5043082;28;20984;-45
2023/03/14 01:31:18;;;;;;;0.63;0.63;;;15.00;69.00;;;;;;5045021;28;20437;-45
2023/03/14 01:33:44;;;;;;;0.73;0.70;;;14.90;68.50;;;;;;5039133;28;20439;-44
2023/03/14 01:36:11;;;;;;;0.83;0.60;;;14.70;68.90;;;;;;5033552;28;20201;-46
2023/03/14 01:38:38;;;;;;;1.37;0.70;;;14.70;69.60;;;;;;5040576;28;20463;-47
2023/03/14 01:41:05;;;;;;;0.50;0.50;;;14.80;68.90;;;;;;5037151;28;20458;-47
2023/03/14 01:43:30;;;;;;;0.70;0.70;;;14.80;68.50;;;;;;5043302;28;20470;-48
2023/03/14 01:46:05;;;;;;;0.70;0.70;;;14.80;68.10;;;;;;5047920;28;20526;-44
2023/03/14 01:48:58;;;;;;;0.53;0.53;;;15.00;67.90;;;;;;5031309;28;20200;-44
2023/03/14 01:51:35;;;;;;;0.90;0.70;;;15.20;67.00;;;;;;5043748;28;20447;-47
2023/03/14 01:54:11;;;;;;;1.27;0.60;;;15.20;66.60;;;;;;5035527;28;20814;-44
2023/03/14 01:56:40;;;;;;;1.43;0.60;;;15.20;66.20;;;;;;5040354;28;20597;-44
2023/03/14 01:59:07;;;;;;;0.60;0.60;;;15.30;66.20;;;;;;5035318;28;20443;-46
2023/03/14 02:01:35;;;;;;;0.70;0.60;;;15.10;66.20;;;;;;5042259;28;20819;-45
2023/03/14 02:04:03;;;;;;;6.53;1.83;;;15.10;66.50;;;;;;5036316;28;20504;-45
2023/03/14 02:06:38;;;;;;;1.80;0.60;;;15.10;66.50;;;;;;5044969;28;21057;-47
2023/03/14 02:09:04;;;;;;;2.30;0.60;;;14.70;67.10;;;;;;5042021;28;20446;-45
2023/03/14 02:11:30;;;;;;;0.60;0.60;;;14.50;68.20;;;;;;5047069;28;20516;-44
2023/03/14 02:13:57;;;;;;;1.37;0.60;;;14.50;68.40;;;;;;5038993;28;20199;-45
2023/03/14 02:16:23;;;;;;;1.43;0.63;;;14.40;68.60;;;;;;5045379;28;20807;-47
2023/03/14 02:18:49;;;;;;;0.60;0.60;;;14.30;68.10;;;;;;5042163;28;20455;-46
2023/03/14 02:21:19;;;;;;;0.93;0.70;;;14.30;68.90;;;;;;5042207;28;20707;-49
2023/03/14 02:23:53;;;;;;;0.60;0.60;;;14.40;68.90;;;;;;5044333;28;20540;-48
2023/03/14 02:26:32;;;;;;;0.90;0.60;;;14.30;68.80;;;;;;5039982;28;20547;-44
2023/03/14 02:28:58;;;;;;;1.00;0.80;;;14.30;68.80;;;;;;5048241;28;21020;-44
2023/03/14 02:31:24;;;;;;;0.70;0.70;;;14.30;69.00;;;;;;5039257;28;20436;-48
2023/03/14 02:33:50;;;;;;;0.50;0.50;;;14.40;67.70;;;;;;5040375;28;20254;-44
2023/03/14 02:36:19;;;;;;;1.67;0.67;;;14.50;67.40;;;;;;5048705;28;20226;-44
2023/03/14 02:38:55;;;;;;;0.60;0.53;;;14.50;67.20;;;;;;5037808;28;20444;-44
2023/03/14 02:41:21;;;;;;;0.77;0.57;;;14.30;66.90;;;;;;5042951;28;20467;-44
2023/03/14 02:43:47;;;;;;;0.70;0.70;;;14.20;68.10;;;;;;5046064;28;20443;-47
2023/03/14 02:46:17;;;;;;;0.67;0.60;;;14.30;68.40;;;;;;5045461;28;20466;-45
2023/03/14 02:48:45;;;;;;;0.73;0.60;;;14.20;68.40;;;;;;5051650;28;20648;-44
2023/03/14 02:51:12;;;;;;;1.50;0.60;;;14.10;68.10;;;;;;5053153;28;20478;-44
2023/03/14 02:53:38;;;;;;;0.97;0.67;;;14.10;67.90;;;;;;5038014;28;20428;-45
2023/03/14 02:56:04;;;;;;;0.90;0.50;;;13.90;68.30;;;;;;5053596;28;20489;-43
2023/03/14 02:58:30;;;;;;;0.60;0.50;;;13.90;68.60;;;;;;5046126;28;20593;-44
2023/03/14 03:00:56;;;;;;;0.50;0.50;;;13.90;68.30;;;;;;5046732;28;20773;-45
2023/03/14 03:03:22;;;;;;;0.80;0.73;;;13.90;68.90;;;;;;5043968;28;20441;-44
2023/03/14 03:05:50;;;;;;;0.50;0.50;;;14.10;68.60;;;;;;5054348;28;20197;-45
2023/03/14 03:08:16;;;;;;;0.67;0.67;;;14.20;68.70;;;;;;5045480;28;20192;-44
2023/03/14 03:10:41;;;;;;;0.50;0.50;;;14.30;67.90;;;;;;5023974;28;20439;-44
2023/03/14 03:13:07;;;;;;;1.47;0.80;;;14.10;67.70;;;;;;5034543;28;20451;-44
2023/03/14 03:15:33;;;;;;;0.60;0.60;;;14.00;67.90;;;;;;5039387;28;20242;-44
2023/03/14 03:17:58;;;;;;;1.30;0.60;;;14.10;68.10;;;;;;5050626;28;20225;-44
2023/03/14 03:20:24;;;;;;;1.40;0.70;;;14.10;67.60;;;;;;5053560;28;20638;-45
2023/03/14 03:22:49;;;;;;;2.90;1.00;;;14.20;67.30;;;;;;5048402;28;20201;-45
2023/03/14 03:25:15;;;;;;;0.70;0.70;;;14.30;67.40;;;;;;5044235;28;20208;-44
2023/03/14 03:27:41;;;;;;;0.90;0.80;;;14.20;67.30;;;;;;5052131;28;20609;-44
2023/03/14 03:30:08;;;;;;;0.50;0.50;;;14.10;67.60;;;;;;5030780;28;20513;-44
2023/03/14 03:32:34;;;;;;;1.00;0.70;;;14.00;67.70;;;;;;5045540;28;20196;-45
2023/03/14 03:35:00;;;;;;;0.70;0.70;;;14.00;67.70;;;;;;5047817;28;20491;-45
2023/03/14 03:37:25;;;;;;;1.20;0.70;;;13.80;68.10;;;;;;5042687;28;20224;-44
2023/03/14 03:39:51;;;;;;;1.17;0.60;;;13.70;68.80;;;;;;5040330;28;20703;-46
2023/03/14 03:42:17;;;;;;;2.20;0.70;;;13.60;69.30;;;;;;5055775;28;20741;-43
2023/03/14 03:44:43;;;;;;;1.20;0.63;;;13.80;69.30;;;;;;5050285;28;20187;-46
2023/03/14 03:47:08;;;;;;;1.10;0.70;;;13.60;68.20;;;;;;5056013;28;20488;-44
2023/03/14 03:49:34;;;;;;;1.20;0.83;;;13.60;68.50;;;;;;5039004;28;20196;-44
2023/03/14 03:52:00;;;;;;;1.10;0.70;;;13.60;67.30;;;;;;5046447;28;20235;-45
2023/03/14 03:54:25;;;;;;;2.60;1.00;;;13.50;68.10;;;;;;5049790;28;20264;-44
2023/03/14 03:56:52;;;;;;;0.90;0.73;;;13.40;68.20;;;;;;5042600;28;20236;-44
2023/03/14 03:59:18;;;;;;;2.87;0.70;;;13.40;67.60;;;;;;5037123;28;20205;-44
2023/03/14 04:01:44;;;;;;;0.80;0.80;;;13.50;67.40;;;;;;5038446;28;20455;-44
2023/03/14 04:04:09;;;;;;;2.97;0.83;;;13.40;67.30;;;;;;5043910;28;20776;-46
2023/03/14 04:06:36;;;;;;;0.87;0.77;;;13.50;66.60;;;;;;5038107;28;20581;-45
2023/03/14 04:09:02;;;;;;;2.60;1.00;;;13.60;66.40;;;;;;5033457;28;21159;-44
2023/03/14 04:11:28;;;;;;;1.43;0.90;;;13.60;66.00;;;;;;5039665;28;21593;-45
2023/03/14 04:13:54;;;;;;;1.03;0.97;;;13.70;65.10;;;;;;5031694;28;20440;-47
2023/03/14 04:16:23;;;;;;;1.67;0.80;;;13.60;65.20;;;;;;5044382;28;20465;-46
2023/03/14 04:18:48;;;;;;;1.00;0.80;;;13.70;65.10;;;;;;5039486;28;20572;-44
2023/03/14 04:21:14;;;;;;;2.00;0.77;;;13.60;64.50;;;;;;5042237;28;20447;-44
2023/03/14 04:23:40;;;;;;;1.43;1.00;;;13.60;64.50;;;;;;5038018;28;20283;-44
2023/03/14 04:26:06;;;;;;;2.40;0.80;;;13.70;63.80;;;;;;5035208;28;20526;-48
2023/03/14 04:28:31;;;;;;;2.90;1.00;;;13.70;63.30;;;;;;5035178;28;20204;-45
2023/03/14 04:30:57;;;;;;;1.83;0.70;;;13.70;62.80;;;;;;5038493;28;20189;-48
2023/03/14 04:33:23;;;;;;;3.93;0.93;;;13.70;62.90;;;;;;5035169;28;20236;-46
2023/03/14 04:35:50;;;;;;;1.60;0.70;;;13.50;62.60;;;;;;5043141;28;20193;-46
2023/03/14 04:38:16;;;;;;;2.20;1.13;;;13.80;62.70;;;;;;5048537;28;20567;-45
2023/03/14 04:40:41;;;;;;;5.23;0.80;;;13.90;62.00;;;;;;5052197;28;21003;-46
2023/03/14 04:43:09;;;;;;;2.83;0.80;;;13.80;61.40;;;;;;5053131;28;20472;-45
2023/03/14 04:45:35;;;;;;;2.07;0.83;;;14.00;61.40;;;;;;5039744;28;20192;-44
2023/03/14 04:48:01;;;;;;;1.23;0.67;;;13.90;60.80;;;;;;5043660;28;20443;-45
2023/03/14 04:50:27;;;;;;;2.77;1.17;;;13.80;61.30;;;;;;5044489;28;20443;-45
2023/03/14 04:52:52;;;;;;;1.40;0.97;;;13.80;61.30;;;;;;5048596;28;20204;-45
2023/03/14 04:55:18;;;;;;;2.83;0.90;;;13.70;60.60;;;;;;5051104;28;20582;-45
2023/03/14 04:57:43;;;;;;;3.50;0.83;;;13.60;61.20;;;;;;5039997;28;20366;-45
2023/03/14 05:00:10;;;;;;;8.13;1.43;;;13.80;61.10;;;;;;5038269;28;20271;-46
2023/03/14 05:02:35;;;;;;;2.50;0.90;;;14.00;60.80;;;;;;5041515;28;20196;-45
2023/03/14 05:05:01;;;;;;;2.80;0.70;;;14.10;60.30;;;;;;5041576;28;21094;-44
2023/03/14 05:07:27;;;;;;;1.77;0.90;;;14.10;59.80;;;;;;5041880;28;20269;-44
2023/03/14 05:09:53;;;;;;;1.77;0.90;;;13.90;59.90;;;;;;5042569;28;20265;-44
2023/03/14 05:12:19;;;;;;;1.50;1.00;;;13.80;59.90;;;;;;5039613;28;20238;-44
2023/03/14 05:14:45;;;;;;;3.23;1.00;;;13.80;61.00;;;;;;5037998;28;20462;-44
2023/03/14 05:17:11;;;;;;;3.07;1.17;;;14.00;60.70;;;;;;5045495;28;20532;-47
2023/03/14 05:19:37;;;;;;;1.97;1.00;;;14.10;60.30;;;;;;5042218;28;20225;-46
2023/03/14 05:22:03;;;;;;;2.33;0.80;;;14.00;59.80;;;;;;5044508;28;20546;-44
2023/03/14 05:24:28;;;;;;;1.70;0.80;;;13.80;60.80;;;;;;5044976;28;20228;-44
2023/03/14 05:26:54;;;;;;;2.37;0.73;;;13.70;60.20;;;;;;5036717;28;20882;-44
2023/03/14 05:29:20;;;;;;;2.50;0.90;;;13.80;60.70;;;;;;5044340;28;20235;-44
2023/03/14 05:31:45;;;;;;;1.70;0.90;;;13.90;60.50;;;;;;5047424;28;20183;-44
2023/03/14 05:34:11;;;;;;;1.10;0.73;;;13.80;59.90;;;;;;5048244;28;20187;-46
2023/03/14 05:36:36;;;;;;;2.47;0.90;;;13.90;60.00;;;;;;5044212;28;20309;-44
2023/03/14 05:39:02;;;;;;;4.73;2.00;;;13.80;59.20;;;;;;5045957;28;20549;-47
2023/03/14 05:41:29;;;;;;;1.67;1.10;;;13.70;59.30;;;;;;5046593;28;20255;-44
2023/03/14 05:43:54;;;;;;;1.87;0.73;;;13.70;59.70;;;;;;5048483;28;20499;-45
2023/03/14 05:46:20;;;;;;;2.77;0.93;;;13.80;59.50;;;;;;5041769;28;20927;-44
2023/03/14 05:48:46;;;;;;;1.27;1.13;;;13.50;59.80;;;;;;5042983;28;20199;-44
2023/03/14 05:51:11;;;;;;;1.40;0.70;;;13.40;60.20;;;;;;5043982;28;20192;-46
2023/03/14 05:53:37;;;;;;;2.40;0.93;;;13.60;60.10;;;;;;5044459;28;20187;-44
2023/03/14 05:56:02;;;;;;;1.23;0.90;;;13.80;59.50;;;;;;5045372;28;20699;-47
2023/03/14 05:58:28;;;;;;;2.57;0.90;;;13.80;59.20;;;;;;5043273;28;20331;-44
2023/03/14 06:00:54;;;;;;;5.73;1.00;;;13.70;59.00;;;;;;5047784;28;20200;-45
2023/03/14 06:03:19;;;;;;;1.47;0.90;;;13.60;58.80;;;;;;5039203;28;20204;-44
2023/03/14 06:05:45;;;;;;;3.00;0.80;;;13.60;59.10;;;;;;5038265;28;20197;-45
2023/03/14 06:08:11;;;;;;;3.67;0.97;;;13.80;59.00;;;;;;5046436;28;20287;-44
2023/03/14 06:10:37;;;;;;;2.80;1.00;;;13.60;58.50;;;;;;5041355;28;20196;-47
2023/03/14 06:13:03;;;;;;;1.63;0.70;;;13.80;58.60;;;;;;5037707;28;20197;-46
2023/03/14 06:15:28;;;;;;;1.73;0.70;;;13.80;58.70;;;;;;5038819;28;20455;-48
2023/03/14 06:17:55;;;;;;;2.10;0.97;;;14.00;58.50;;;;;;5051188;28;20227;-45
2023/03/14 06:20:21;;;;;;;3.20;1.00;;;13.90;58.00;;;;;;5052808;28;20246;-45
2023/03/14 06:22:47;;;;;;;2.80;1.10;;;13.90;58.80;;;;;;5039794;28;20444;-44
2023/03/14 06:25:12;;;;;;;1.73;1.13;;;13.90;58.50;;;;;;5039241;28;20205;-44
2023/03/14 06:27:38;;;;;;;2.03;1.10;;;13.70;58.40;;;;;;5037829;28;20200;-46
2023/03/14 06:30:04;;;;;;;1.40;0.90;;;13.80;58.70;;;;;;5044302;28;20554;-44
2023/03/14 06:32:29;;;;;;;3.53;1.20;;;14.00;58.30;;;;;;5045075;28;20200;-44
2023/03/14 06:34:57;;;;;;;4.13;1.10;;;14.10;58.00;;;;;;5049100;28;20481;-44
2023/03/14 06:37:22;;;;;;;3.00;0.83;;;14.10;57.80;;;;;;5048316;28;20262;-44
2023/03/14 06:39:48;;;;;;;2.23;0.80;;;14.10;57.90;;;;;;5046584;28;20447;-44
2023/03/14 06:42:13;;;;;;;1.10;1.00;;;14.20;57.60;;;;;;5062524;28;20222;-44
2023/03/14 06:44:39;;;;;;;1.30;1.03;;;14.30;57.60;;;;;;5049790;28;20583;-44
2023/03/14 06:47:04;;;;;;;3.63;1.00;;;14.40;57.30;;;;;;5049258;28;20311;-44
2023/03/14 06:49:30;;;;;;;1.20;1.10;;;14.00;57.40;;;;;;5046894;28;20211;-44
2023/03/14 06:51:56;;;;;;;2.40;1.13;;;14.20;57.50;;;;;;5033677;28;20533;-45
2023/03/14 06:54:21;;;;;;;0.93;0.80;;;14.40;57.40;;;;;;5047044;28;20236;-44
2023/03/14 06:56:47;;;;;;;1.47;1.00;;;14.50;56.80;;;;;;5043837;28;20235;-45
2023/03/14 06:59:12;;;;;;;1.33;0.90;;;14.60;56.50;;;;;;5052166;28;20227;-45
2023/03/14 07:01:38;;;;;;;1.77;1.20;;;14.80;56.00;;;;;;5044802;28;20185;-44
2023/03/14 07:04:04;;;;;;;3.63;1.00;;;15.10;55.70;;;;;;5039369;28;20206;-44
2023/03/14 07:06:29;;;;;;;1.20;0.80;;;15.30;55.40;;;;;;5045265;28;20255;-46
2023/03/14 07:08:55;;;;;;;1.60;1.07;;;15.40;54.60;;;;;;5029447;28;20197;-44
2023/03/14 07:11:23;;;;;;;2.80;1.30;;;15.50;54.40;;;;;;5030501;28;20212;-44
2023/03/14 07:13:49;;;;;;;2.30;1.20;;;15.70;54.50;;;;;;5039599;28;20427;-44
2023/03/14 07:16:14;;;;;;;4.63;1.10;;;15.80;53.70;;;;;;5031138;28;20477;-45
2023/03/14 07:18:40;;;;;;;4.40;0.93;;;15.90;53.50;;;;;;5035734;28;20219;-44
2023/03/14 07:21:07;;;;;;;4.83;1.20;;;15.80;53.50;;;;;;5032674;28;20218;-45
2023/03/14 07:23:33;;;;;;;1.77;0.90;;;16.10;53.70;;;;;;5036830;28;20199;-46
2023/03/14 07:25:59;;;;;;;1.53;1.20;;;16.40;52.90;;;;;;5033744;28;21799;-45
2023/03/14 07:28:25;;;;;;;1.37;0.87;;;16.60;52.30;;;;;;5044379;28;20518;-44
2023/03/14 07:30:50;;;;;;;1.67;0.70;;;16.90;52.50;;;;;;5038310;28;20193;-45
2023/03/14 07:33:16;;;;;;;2.00;1.00;;;17.00;51.50;;;;;;5043230;28;20946;-45
2023/03/14 07:35:42;;;;;;;3.10;1.30;;;17.00;50.80;;;;;;5044375;28;20196;-44
2023/03/14 07:38:07;;;;;;;0.60;0.60;;;16.80;50.50;;;;;;5051103;28;20543;-45
2023/03/14 07:40:33;;;;;;;1.20;1.10;;;16.80;51.10;;;;;;5046314;28;20204;-45
2023/03/14 07:42:58;;;;;;;1.23;0.83;;;16.90;50.70;;;;;;5034757;28;20649;-44
2023/03/14 07:45:24;;;;;;;2.70;0.97;;;17.00;50.80;;;;;;5032309;28;21173;-47
2023/03/14 07:47:50;;;;;;;1.63;0.90;;;17.20;50.60;;;;;;5038699;28;20264;-46
2023/03/14 07:50:15;;;;;;;2.00;1.00;;;17.20;50.30;;;;;;5051250;28;20193;-45
2023/03/14 07:52:41;;;;;;;3.00;1.13;;;17.30;50.30;;;;;;5047078;28;20227;-44
2023/03/14 07:55:07;;;;;;;2.20;1.00;;;17.30;49.40;;;;;;5048607;28;20585;-46
2023/03/14 07:57:33;;;;;;;0.90;0.77;;;17.30;49.90;;;;;;5040768;28;20223;-46
2023/03/14 07:59:58;;;;;;;1.43;1.03;;;17.20;50.10;;;;;;5041147;28;20918;-46
2023/03/14 08:02:24;;;;;;;1.87;1.00;;;17.40;49.70;;;;;;5049992;28;20197;-45
2023/03/14 08:04:50;;;;;;;1.80;0.90;;;17.30;49.70;;;;;;5045011;28;20668;-47
2023/03/14 08:07:16;;;;;;;4.10;1.07;;;17.30;49.80;;;;;;5041554;28;20196;-46
2023/03/14 08:09:42;;;;;;;0.70;0.70;;;17.30;49.90;;;;;;5036435;28;21030;-47
2023/03/14 08:12:08;;;;;;;0.97;0.87;;;17.50;50.00;;;;;;5041518;28;20451;-46
2023/03/14 08:14:33;;;;;;;1.60;0.80;;;17.70;49.20;;;;;;5039769;28;20220;-47
2023/03/14 08:16:59;;;;;;;2.00;0.83;;;17.40;49.10;;;;;;5049035;28;20220;-46
2023/03/14 08:19:25;;;;;;;1.30;0.73;;;17.20;49.70;;;;;;5046586;28;20189;-46
2023/03/14 08:21:50;;;;;;;2.80;1.00;;;17.30;49.70;;;;;;5041845;28;20660;-46
2023/03/14 08:24:16;;;;;;;1.90;0.67;;;17.10;49.80;;;;;;5039048;28;20272;-46
2023/03/14 08:26:42;;;;;;;0.70;0.70;;;17.00;49.30;;;;;;5047486;28;20192;-47
2023/03/14 08:29:08;;;;;;;1.40;0.90;;;16.70;49.50;;;;;;5041438;28;20204;-46
2023/03/14 08:31:34;;;;;;;3.10;0.83;;;16.60;50.70;;;;;;5043454;28;20196;-48
2023/03/14 08:34:01;;;;;;;1.63;0.90;;;16.50;50.80;;;;;;5039468;28;20283;-44
2023/03/14 08:36:27;;;;;;;1.33;0.70;;;16.50;50.10;;;;;;5050256;28;21179;-47
2023/03/14 08:38:53;;;;;;;1.13;0.70;;;16.60;50.50;;;;;;5039306;28;20543;-45
2023/03/14 08:41:18;;;;;;;0.77;0.70;;;16.80;50.70;;;;;;5043603;28;20679;-45
2023/03/14 08:43:44;;;;;;;0.90;0.70;;;17.00;50.20;;;;;;5037651;28;20197;-45
2023/03/14 08:46:09;;;;;;;1.70;0.60;;;17.00;49.60;;;;;;5041694;28;20431;-45
2023/03/14 08:48:35;;;;;;;2.07;0.63;;;17.00;49.80;;;;;;5040537;28;20326;-46
2023/03/14 08:51:08;;;;;;;2.40;0.80;;;16.90;49.50;;;;;;5035812;28;20239;-46
2023/03/14 08:53:34;;;;;;;1.47;0.80;;;17.00;50.30;;;;;;5050768;28;20199;-47
2023/03/14 08:56:00;;;;;;;1.03;0.67;;;17.00;49.30;;;;;;5044296;28;20476;-46
2023/03/14 08:58:25;;;;;;;1.00;0.70;;;17.00;48.40;;;;;;5051473;28;20223;-47
2023/03/14 09:00:51;;;;;;;0.70;0.70;;;16.60;47.90;;;;;;5047669;28;20185;-45
2023/03/14 09:03:17;;;;;;;1.07;0.93;;;16.40;48.70;;;;;;5047589;28;20565;-45
2023/03/14 09:05:42;;;;;;;1.27;0.70;;;16.50;49.30;;;;;;5039406;28;20232;-45
2023/03/14 09:08:08;;;;;;;1.23;0.67;;;16.40;49.10;;;;;;5039940;28;20212;-45
2023/03/14 09:10:33;;;;;;;1.60;0.60;;;16.00;48.70;;;;;;5041399;28;20192;-45
2023/03/14 09:13:00;;;;;;;0.80;0.60;;;16.00;49.60;;;;;;5041176;28;20226;-45
2023/03/14 09:15:25;;;;;;;0.63;0.60;;;15.90;49.30;;;;;;5037464;28;20583;-46
2023/03/14 09:17:51;;;;;;;1.90;0.73;;;16.10;49.70;;;;;;5041853;28;20491;-46
2023/03/14 09:20:17;;;;;;;1.03;0.70;;;15.90;49.50;;;;;;5039931;28;20203;-47
2023/03/14 09:22:42;;;;;;;1.57;0.77;;;15.90;50.20;;;;;;5043129;28;20204;-45
2023/03/14 09:25:08;;;;;;;1.17;0.60;;;15.90;50.60;;;;;;5039187;28;20200;-49
2023/03/14 09:27:34;;;;;;;1.27;0.80;;;15.80;50.90;;;;;;5043814;28;20193;-46
2023/03/14 09:30:00;;;;;;;0.80;0.60;;;15.80;51.90;;;;;;5042295;28;20946;-46
2023/03/14 09:32:25;;;;;;;1.53;0.63;;;15.80;51.30;;;;;;5043921;28;20215;-46
2023/03/14 09:34:51;;;;;;;1.47;0.70;;;15.40;51.80;;;;;;5034694;28;20208;-45
2023/03/14 09:37:16;;;;;;;0.60;0.60;;;15.20;52.50;;;;;;5038294;28;20979;-51
2023/03/14 09:39:43;;;;;;;0.93;0.60;;;15.10;53.40;;;;;;5040862;28;20196;-47
2023/03/14 09:42:22;;;;;;;0.50;0.50;;;15.40;53.80;;;;;;5037493;28;20196;-48
2023/03/14 09:44:50;;;;;;;0.50;0.50;;;15.40;53.50;;;;;;5042867;28;20442;-47
2023/03/14 09:47:19;;;;;;;0.90;0.80;;;15.50;53.10;;;;;;5039211;28;20468;-48
2023/03/14 09:49:45;;;;;;;0.80;0.60;;;15.60;53.40;;;;;;5040521;28;20435;-47
2023/03/14 09:52:19;;;;;;;1.43;0.97;;;15.60;53.00;;;;;;5040364;28;20448;-48
2023/03/14 09:54:49;;;;;;;0.90;0.60;;;15.80;53.00;;;;;;5037585;28;20683;-47
2023/03/14 09:57:18;;;;;;;0.73;0.73;;;15.90;52.70;;;;;;5039206;28;20496;-46
2023/03/14 09:59:46;;;;;;;1.20;0.70;;;15.70;51.70;;;;;;5041527;28;20814;-45
2023/03/14 10:02:31;;;;;;;2.20;0.90;;;15.80;52.40;;;;;;5034812;28;20502;-46
2023/03/14 10:04:57;;;;;;;0.80;0.60;;;15.90;52.10;;;;;;5040647;28;20454;-46
2023/03/14 10:07:31;;;;;;;1.27;0.83;;;16.10;52.30;;;;;;5042277;28;20467;-46
2023/03/14 10:09:58;;;;;;;3.40;0.93;;;16.20;51.70;;;;;;5037696;28;20207;-45
2023/03/14 10:12:35;;;;;;;1.53;0.80;;;16.10;51.30;;;;;;5035673;28;20478;-46
2023/03/14 10:15:10;;;;;;;1.33;0.50;;;15.90;51.40;;;;;;5034694;28;20545;-47
2023/03/14 10:17:46;;;;;;;0.93;0.93;;;15.70;51.00;;;;;;5033291;28;20483;-46
2023/03/14 10:20:32;;;;;;;0.80;0.77;;;15.60;51.30;;;;;;5032829;28;20463;-46
2023/03/14 10:23:21;;;;;;;0.60;0.60;;;15.90;51.50;;;;;;5039667;28;20545;-46
2023/03/14 10:26:11;;;;;;;3.17;1.00;;;16.00;50.90;;;;;;5034621;28;20526;-47
2023/03/14 10:28:39;;;;;;;0.97;0.77;;;16.40;50.80;;;;;;5041020;28;20447;-46
2023/03/14 10:31:05;;;;;;;0.60;0.60;;;16.50;50.30;;;;;;5038029;28;20789;-47
2023/03/14 10:33:34;;;;;;;0.93;0.60;;;16.70;50.20;;;;;;5040220;28;20792;-47
2023/03/14 10:36:01;;;;;;;0.80;0.80;;;16.80;49.80;;;;;;5034880;28;20450;-47
2023/03/14 10:38:36;;;;;;;0.60;0.50;;;16.70;49.70;;;;;;5019981;28;20487;-47
2023/03/14 10:41:14;;;;;;;0.60;0.50;;;16.90;49.30;;;;;;5038498;28;20897;-45
2023/03/14 10:43:41;;;;;;;0.80;0.70;;;16.70;48.80;;;;;;5035962;28;20452;-46
2023/03/14 10:46:14;;;;;;;1.07;0.60;;;16.70;49.80;;;;;;5039194;28;20448;-45
2023/03/14 10:48:42;;;;;;;1.13;0.53;;;16.50;49.70;;;;;;5048609;28;20451;-48
2023/03/14 10:51:17;;;;;;;1.20;0.90;;;16.60;49.60;;;;;;5044270;28;20533;-45
2023/03/14 10:53:55;;;;;;;21.53;1.13;;;16.90;50.60;;;;;;5043038;28;20442;-48
2023/03/14 10:56:23;;;;;;;1.00;0.90;;;16.90;49.40;;;;;;5040405;28;20915;-46
2023/03/14 10:58:56;;;;;;;0.60;0.57;;;16.60;48.90;;;;;;5034124;28;20490;-45
2023/03/14 11:01:54;;;;;;;0.50;0.50;;;16.10;49.30;;;;;;5040159;28;20554;-45
2023/03/14 11:04:41;;;;;;;0.87;0.70;;;16.10;50.20;;;;;;5001825;28;20490;-45
2023/03/14 11:07:19;;;;;;;0.90;0.63;;;16.10;50.30;;;;;;5046542;28;20449;-46
2023/03/14 11:09:51;;;;;;;1.13;1.03;;;15.80;49.90;;;;;;5044566;28;20472;-46
2023/03/14 11:12:31;;;;;;;0.70;0.70;;;15.80;50.90;;;;;;5043752;28;20447;-45
2023/03/14 11:15:10;;;;;;;0.90;0.60;;;16.00;51.10;;;;;;5047540;28;20804;-45
2023/03/14 11:17:49;;;;;;;0.90;0.80;;;16.20;51.50;;;;;;5042981;28;20982;-45
2023/03/14 11:20:24;;;;;;;0.70;0.60;;;16.20;51.30;;;;;;5039303;28;20455;-47
2023/03/14 11:23:06;;;;;;;1.80;0.60;;;15.80;51.00;;;;;;5046465;28;20450;-46
2023/03/14 11:25:33;;;;;;;1.50;0.70;;;15.80;51.80;;;;;;5051068;28;20488;-46
2023/03/14 11:28:15;;;;;;;0.70;0.70;;;15.90;52.40;;;;;;5049251;28;20456;-45
2023/03/14 11:30:51;;;;;;;1.10;0.70;;;15.90;52.10;;;;;;5047885;28;20443;-46
2023/03/14 11:33:37;;;;;;;0.83;0.60;;;15.90;53.00;;;;;;5042559;28;20453;-46
2023/03/14 11:36:19;;;;;;;0.83;0.63;;;15.90;53.90;;;;;;5037176;28;20463;-45
2023/03/14 11:38:50;;;;;;;0.70;0.60;;;15.60;55.60;;;;;;5049065;28;20505;-44
2023/03/14 11:41:39;;;;;;;0.90;0.60;;;15.30;56.80;;;;;;5047642;28;20501;-45
2023/03/14 11:44:16;;;;;;;0.60;0.60;;;15.00;56.70;;;;;;5051606;28;20443;-44
2023/03/14 11:46:50;;;;;;;0.80;0.60;;;14.80;57.20;;;;;;5048626;28;20451;-45
2023/03/14 11:49:19;;;;;;;0.77;0.60;;;14.90;58.20;;;;;;5050586;28;20447;-45
2023/03/14 11:51:50;;;;;;;0.70;0.70;;;14.60;58.30;;;;;;5049433;28;20942;-46
2023/03/14 11:54:31;;;;;;;0.60;0.60;;;14.60;58.40;;;;;;5034520;28;20511;-46
2023/03/14 11:57:09;;;;;;;0.60;0.60;;;14.50;57.90;;;;;;5041958;28;20502;-46
2023/03/14 11:59:53;;;;;;;0.50;0.50;;;14.50;57.40;;;;;;5050070;28;20452;-44
2023/03/14 12:02:24;;;;;;;0.87;0.80;;;14.50;57.70;;;;;;5048975;28;20446;-46
2023/03/14 12:05:28;;;;;;;1.70;0.57;;;14.50;57.10;;;;;;5049635;28;20494;-46
2023/03/14 12:08:09;;;;;;;1.93;0.60;;;14.70;58.40;;;;;;5050109;28;20492;-45
2023/03/14 12:10:57;;;;;;;1.33;0.60;;;14.70;58.20;;;;;;5042955;28;20454;-46
2023/03/14 12:13:29;;;;;;;1.03;0.57;;;14.70;58.80;;;;;;5038497;28;21060;-45
2023/03/14 12:15:59;;;;;;;0.60;0.53;;;14.80;58.70;;;;;;5041478;28;20467;-46
2023/03/14 12:18:31;;;;;;;0.87;0.60;;;14.80;58.50;;;;;;5038438;28;20545;-44
2023/03/14 12:21:03;;;;;;;0.60;0.60;;;14.80;58.10;;;;;;5044249;28;20469;-46
2023/03/14 12:23:43;;;;;;;0.60;0.50;;;14.90;58.20;;;;;;5046958;28;20439;-46
2023/03/14 12:26:11;;;;;;;0.60;0.60;;;14.80;57.70;;;;;;5043378;28;20453;-44
2023/03/14 12:28:38;;;;;;;1.13;0.60;;;14.70;58.40;;;;;;5045588;28;20467;-45
2023/03/14 12:31:28;;;;;;;0.60;0.60;;;14.80;59.00;;;;;;5050581;28;20451;-45
2023/03/14 12:34:09;;;;;;;0.60;0.50;;;14.90;59.20;;;;;;5050175;28;20458;-45
2023/03/14 12:36:50;;;;;;;0.50;0.50;;;14.70;58.70;;;;;;5038798;28;20522;-45
2023/03/14 12:39:49;;;;;;;0.50;0.50;;;14.70;59.10;;;;;;5041382;28;20946;-44
2023/03/14 12:42:50;;;;;;;0.50;0.50;;;14.50;59.10;;;;;;5043586;28;20580;-45
2023/03/14 12:45:29;;;;;;;0.60;0.60;;;14.20;58.20;;;;;;5028044;28;20461;-46
2023/03/14 12:48:15;;;;;;;0.60;0.60;;;14.30;57.10;;;;;;5039701;28;20443;-45
2023/03/14 12:50:52;;;;;;;0.90;0.73;;;14.20;56.40;;;;;;5050283;28;20481;-46
2023/03/14 12:53:38;;;;;;;0.97;0.80;;;14.40;54.60;;;;;;5047133;28;20537;-45
2023/03/14 12:56:09;;;;;;;2.77;0.90;;;14.10;53.40;;;;;;5001150;28;20826;-46